createdAt,value
2023-04-16T00:00:02.440Z,97915.91
2023-04-16T00:02:52.660Z,97925.49
2023-04-16T00:05:23.631Z,97919.20
2023-04-16T00:10:49.255Z,97930.98
2023-04-16T00:13:19.612Z,97944.66
2023-04-16T00:15:49.908Z,97952.31
2023-04-16T00:18:21.693Z,97965.19
2023-04-16T00:20:51.768Z,97963.27
2023-04-16T00:26:35.118Z,97976.40
2023-04-16T00:29:24.796Z,97987.36
2023-04-16T00:32:51.128Z,97995.87
2023-04-16T00:34:37.706Z,98001.03
2023-04-16T00:37:08.013Z,98001.03
2023-04-16T00:39:38.384Z,98014.71
2023-04-16T00:42:08.495Z,98014.71
2023-04-16T00:45:06.177Z,98012.53
2023-04-16T00:50:32.392Z,98015.04
2023-04-16T00:59:57.227Z,98024.59
2023-04-16T01:03:06.265Z,98023.17
2023-04-16T01:08:52.901Z,98041.48
2023-04-16T01:12:06.779Z,98052.41
2023-04-16T01:15:18.426Z,98057.87
2023-04-16T01:17:53.978Z,98053.47
2023-04-16T01:21:14.726Z,98056.72
2023-04-16T01:23:57.463Z,98067.66
2023-04-16T01:26:58.614Z,98078.88
2023-04-16T01:30:07.751Z,98089.23
2023-04-16T01:33:05.898Z,98094.41
2023-04-16T01:36:03.662Z,98096.05
2023-04-16T01:39:13.756Z,98098.47
2023-04-16T01:42:15.337Z,98109.41
2023-04-16T01:45:05.517Z,98125.81
2023-04-16T01:48:07.832Z,98137.81
2023-04-16T01:51:05.165Z,98137.00
2023-04-16T01:53:50.869Z,98147.66
2023-04-16T01:57:45.102Z,98159.11
2023-04-16T02:00:36.020Z,98163.48
2023-04-16T02:03:06.076Z,98171.10
2023-04-16T02:06:12.288Z,98175.96
2023-04-16T02:12:14.590Z,98169.22
2023-04-16T02:15:11.071Z,98200.25
2023-04-16T02:29:10.362Z,98240.36
2023-04-16T02:31:40.428Z,98237.87
2023-04-16T02:34:10.495Z,98237.59
2023-04-16T02:36:40.456Z,98245.25
2023-04-16T02:39:10.504Z,98244.97
2023-04-16T02:41:43.865Z,98243.60
2023-04-16T02:44:13.748Z,98246.03
2023-04-16T02:46:44.691Z,98252.86
2023-04-16T02:52:37.357Z,98260.20
2023-04-16T02:55:08.788Z,98271.13
2023-04-16T02:57:38.755Z,98276.28
2023-04-16T03:00:09.684Z,98271.64
2023-04-16T03:03:03.833Z,98269.45
2023-04-16T03:05:51.937Z,98270.00
2023-04-16T03:08:49.687Z,98262.30
2023-04-16T03:11:36.539Z,98266.91
2023-04-16T03:13:51.317Z,98277.30
2023-04-16T03:16:21.358Z,98282.21
2023-04-16T03:18:51.352Z,98295.29
2023-04-16T03:21:30.492Z,98295.02
2023-04-16T03:27:23.321Z,98290.65
2023-04-16T03:30:37.775Z,98253.11
2023-04-16T03:33:36.324Z,98281.27
2023-04-16T03:37:02.799Z,98287.52
2023-04-16T03:39:33.616Z,98286.41
2023-04-16T03:45:25.952Z,98287.78
2023-04-16T03:51:31.224Z,98300.03
2023-04-16T03:54:10.049Z,98308.37
2023-04-16T03:57:18.604Z,98312.73
2023-04-16T04:00:13.154Z,98303.17
2023-04-16T04:05:55.132Z,98292.44
2023-04-16T04:08:24.992Z,98292.98
2023-04-16T04:10:54.900Z,98288.30
2023-04-16T04:13:25.096Z,98284.47
2023-04-16T04:15:55.427Z,98280.06
2023-04-16T04:18:57.483Z,98275.68
2023-04-16T04:21:49.601Z,98280.55
2023-04-16T04:24:22.609Z,98287.92
2023-04-16T04:27:12.340Z,98287.30
2023-04-16T04:30:14.409Z,98294.70
2023-04-16T04:39:54.333Z,98312.38
2023-04-16T04:42:24.203Z,98309.84
2023-04-16T04:45:16.044Z,98314.43
2023-04-16T04:48:06.713Z,98309.73
2023-04-16T04:53:27.046Z,98311.33
2023-04-16T04:56:01.852Z,98324.20
2023-04-16T04:58:28.739Z,98322.80
2023-04-16T05:01:08.242Z,98320.30
2023-04-16T05:03:38.466Z,98324.11
2023-04-16T05:07:06.762Z,98327.38
2023-04-16T05:10:08.240Z,98325.70
2023-04-16T05:12:41.744Z,98331.66
2023-04-16T05:15:32.918Z,98323.19
2023-04-16T05:18:09.417Z,98326.15
2023-04-16T05:20:39.296Z,98320.41
2023-04-16T05:23:11.298Z,98324.73
2023-04-16T05:25:41.379Z,98327.73
2023-04-16T05:28:11.681Z,98322.50
2023-04-16T05:30:41.772Z,98324.13
2023-04-16T05:36:40.520Z,98316.70
2023-04-16T05:39:19.857Z,98319.67
2023-04-16T05:42:18.165Z,98319.93
2023-04-16T05:48:34.052Z,98305.92
2023-04-16T05:51:27.415Z,98298.92
2023-04-16T05:54:05.130Z,98298.77
2023-04-16T05:56:35.547Z,98303.40
2023-04-16T05:59:06.630Z,98293.20
2023-04-16T06:01:37.566Z,98304.13
2023-04-16T06:04:08.040Z,98311.20
2023-04-16T06:06:38.763Z,98301.60
2023-04-16T06:09:28.468Z,98298.88
2023-04-16T06:12:14.316Z,98314.70
2023-04-16T06:14:44.085Z,98314.42
2023-04-16T06:17:14.085Z,98320.66
2023-04-16T06:19:44.054Z,98320.88
2023-04-16T06:22:13.924Z,98322.79
2023-04-16T06:24:47.424Z,98318.09
2023-04-16T06:27:54.365Z,98318.64
2023-04-16T06:30:24.395Z,98313.95
2023-04-16T06:35:53.041Z,98301.63
2023-04-16T06:38:23.053Z,98306.52
2023-04-16T06:40:53.015Z,98304.84
2023-04-16T06:43:23.025Z,98299.64
2023-04-16T06:45:53.076Z,98301.23
2023-04-16T06:54:34.866Z,98309.63
2023-04-16T06:57:37.834Z,98321.59
2023-04-16T07:01:02.644Z,98323.18
2023-04-16T07:10:53.100Z,98305.88
2023-04-16T07:25:48.346Z,98278.50
2023-04-16T07:38:14.170Z,98312.16
2023-04-16T08:01:09.597Z,98313.55
2023-04-16T08:03:48.551Z,98309.89
2023-04-16T08:06:42.336Z,98284.48
2023-04-16T08:09:53.679Z,98292.88
2023-04-16T08:12:47.909Z,98307.30
2023-04-16T08:19:01.199Z,98321.42
2023-04-16T08:22:19.283Z,98321.36
2023-04-16T08:25:03.549Z,98319.68
2023-04-16T08:27:53.907Z,98311.76
2023-04-16T08:31:09.476Z,98307.07
2023-04-16T08:34:23.355Z,98314.11
2023-04-16T08:37:01.982Z,98328.28
2023-04-16T08:42:58.221Z,98308.25
2023-04-16T08:49:09.494Z,98306.01
2023-04-16T08:55:33.726Z,98309.21
2023-04-16T08:58:35.450Z,98317.92
2023-04-16T09:04:02.909Z,98304.72
2023-04-16T09:10:42.361Z,98301.08
2023-04-16T09:13:15.663Z,98315.75
2023-04-16T09:16:25.636Z,98315.14
2023-04-16T09:19:10.492Z,98312.14
2023-04-16T09:25:39.494Z,98324.05
2023-04-16T09:31:17.421Z,98350.75
2023-04-16T09:34:08.041Z,98356.30
2023-04-16T09:40:31.525Z,98351.50
2023-04-16T09:43:02.846Z,98359.48
2023-04-16T09:58:03.180Z,98384.06
2023-04-16T10:03:57.223Z,98379.91
2023-04-16T10:06:27.958Z,98382.31
2023-04-16T10:08:57.925Z,98384.14
2023-04-16T10:11:28.103Z,98375.47
2023-04-16T10:17:19.996Z,98357.69
2023-04-16T10:19:50.550Z,98358.45
2023-04-16T10:22:29.300Z,98355.05
2023-04-16T10:28:56.894Z,98361.46
2023-04-16T10:31:44.153Z,98372.47
2023-04-16T10:34:50.186Z,98379.81
2023-04-16T10:53:13.751Z,98391.03
2023-04-16T10:56:08.108Z,98403.21
2023-04-16T10:59:00.442Z,98413.49
2023-04-16T11:02:00.414Z,98410.98
2023-04-16T11:04:42.414Z,98419.69
2023-04-16T11:16:52.793Z,98429.15
2023-04-16T11:19:34.493Z,98430.08
2023-04-16T11:22:21.951Z,98424.34
2023-04-16T11:25:20.072Z,98434.08
2023-04-16T11:28:59.598Z,98431.58
2023-04-16T11:31:29.676Z,98439.45
2023-04-16T11:34:45.283Z,98424.86
2023-04-16T11:37:56.046Z,98443.67
2023-04-16T11:40:49.564Z,98457.53
2023-04-16T11:43:49.155Z,98457.12
2023-04-16T11:46:53.011Z,98464.44
2023-04-16T11:49:42.475Z,98469.37
2023-04-16T11:52:34.549Z,98483.56
2023-04-16T11:58:46.598Z,98504.56
2023-04-16T12:01:24.877Z,98501.67
2023-04-16T12:07:59.629Z,98524.13
2023-04-16T12:10:56.781Z,98532.30
2023-04-16T12:13:41.733Z,98539.30
2023-04-16T12:19:57.686Z,98550.03
2023-04-16T12:22:31.126Z,98547.60
2023-04-16T12:25:30.021Z,98561.44
2023-04-16T12:34:49.059Z,98568.67
2023-04-16T12:43:37.219Z,98591.61
2023-04-16T12:49:24.387Z,98600.03
2023-04-16T12:51:54.286Z,98605.75
2023-04-16T12:54:25.457Z,98604.01
2023-04-16T12:56:55.751Z,98613.53
2023-04-16T12:59:25.799Z,98617.79
2023-04-16T13:02:10.130Z,98619.34
2023-04-16T13:05:05.570Z,98615.16
2023-04-16T13:08:05.910Z,98616.70
2023-04-16T13:10:52.285Z,98607.63
2023-04-16T13:16:50.467Z,98602.45
2023-04-16T13:19:22.337Z,98614.97
2023-04-16T13:21:52.201Z,98616.34
2023-04-16T13:24:22.457Z,98617.82
2023-04-16T13:26:54.372Z,98617.34
2023-04-16T13:29:24.349Z,98605.34
2023-04-16T13:31:54.522Z,98610.52
2023-04-16T13:34:28.864Z,98615.16
2023-04-16T13:36:58.066Z,98623.88
2023-04-16T13:39:29.527Z,98624.94
2023-04-16T13:41:59.409Z,98632.84
2023-04-16T13:47:13.075Z,98626.62
2023-04-16T13:49:43.073Z,98623.98
2023-04-16T13:52:29.122Z,98634.91
2023-04-16T13:55:00.291Z,98629.16
2023-04-16T13:57:30.777Z,98623.93
2023-04-16T14:00:00.642Z,98615.73
2023-04-16T14:02:30.876Z,98622.28
2023-04-16T14:05:02.280Z,98628.79
2023-04-16T14:08:01.231Z,98629.33
2023-04-16T14:10:31.809Z,98634.51
2023-04-16T14:13:01.835Z,98632.83
2023-04-16T14:15:32.365Z,98636.64
2023-04-16T14:18:03.935Z,98641.27
2023-04-16T14:20:33.964Z,98637.40
2023-04-16T14:23:05.828Z,98644.77
2023-04-16T14:28:55.579Z,98634.61
2023-04-16T14:31:46.067Z,98632.36
2023-04-16T14:34:34.353Z,98634.32
2023-04-16T14:37:04.931Z,98626.35
2023-04-16T14:39:34.806Z,98640.01
2023-04-16T14:42:06.330Z,98630.98
2023-04-16T14:44:36.488Z,98641.31
2023-04-16T14:47:30.684Z,98637.75
2023-04-16T14:50:00.658Z,98645.37
2023-04-16T14:52:45.665Z,98648.10
2023-04-16T14:58:03.968Z,98647.78
2023-04-16T15:00:34.835Z,98645.18
2023-04-16T15:03:04.953Z,98658.38
2023-04-16T15:05:35.613Z,98658.22
2023-04-16T15:08:06.236Z,98656.59
2023-04-16T15:14:34.648Z,98663.00
2023-04-16T15:17:24.657Z,98660.02
2023-04-16T15:19:57.484Z,98667.09
2023-04-16T15:23:22.582Z,98663.00
2023-04-16T15:26:38.900Z,98666.81
2023-04-16T15:29:21.309Z,98670.58
2023-04-16T15:32:36.184Z,98665.59
2023-04-16T15:35:46.335Z,98667.72
2023-04-16T15:38:46.719Z,98673.43
2023-04-16T15:41:37.006Z,98676.67
2023-04-16T15:44:17.198Z,98675.17
2023-04-16T15:46:53.524Z,98674.82
2023-04-16T15:52:00.147Z,98682.11
2023-04-16T15:54:30.998Z,98683.40
2023-04-16T15:57:01.007Z,98684.98
2023-04-16T16:00:08.692Z,98684.33
2023-04-16T16:02:40.201Z,98682.72
2023-04-16T16:05:22.666Z,98688.03
2023-04-16T16:11:22.952Z,98696.14
2023-04-16T16:14:04.679Z,98688.42
2023-04-16T16:17:21.874Z,98692.76
2023-04-16T16:20:20.198Z,98691.08
2023-04-16T16:26:18.136Z,98688.28
2023-04-16T16:29:17.050Z,98688.28
2023-04-16T16:31:59.340Z,98681.39
2023-04-16T16:34:44.653Z,98687.09
2023-04-16T16:37:01.030Z,98672.92
2023-04-16T16:39:31.007Z,98680.56
2023-04-16T16:42:00.925Z,98685.72
2023-04-16T16:47:14.203Z,98692.37
2023-04-16T16:50:03.107Z,98685.72
2023-04-16T16:53:00.135Z,98677.77
2023-04-16T16:55:21.959Z,98667.78
2023-04-16T16:57:51.885Z,98681.31
2023-04-16T17:00:22.484Z,98691.10
2023-04-16T17:02:53.046Z,98682.09
2023-04-16T17:05:23.260Z,98673.59
2023-04-16T17:08:21.781Z,98673.59
2023-04-16T17:10:58.879Z,98678.55
2023-04-16T17:13:28.950Z,98658.31
2023-04-16T17:15:58.927Z,98664.05
2023-04-16T17:18:29.492Z,98666.49
2023-04-16T17:21:00.211Z,98662.41
2023-04-16T17:23:32.946Z,98668.08
2023-04-16T17:26:33.540Z,98664.52
2023-04-16T17:29:08.292Z,98665.59
2023-04-16T17:32:33.340Z,98660.14
2023-04-16T17:34:13.960Z,98648.92
2023-04-16T17:36:44.897Z,98656.80
2023-04-16T17:39:15.162Z,98644.54
2023-04-16T17:41:45.387Z,98648.34
2023-04-16T17:44:15.458Z,98635.00
2023-04-16T17:47:06.944Z,98641.81
2023-04-16T17:49:37.004Z,98630.08
2023-04-16T17:52:07.323Z,98604.97
2023-04-16T17:54:37.256Z,98633.34
2023-04-16T17:57:07.243Z,98633.34
2023-04-16T17:59:37.313Z,98628.72
2023-04-16T18:02:28.684Z,98620.00
2023-04-16T18:05:46.427Z,98610.64
2023-04-16T18:09:02.309Z,98602.46
2023-04-16T18:11:39.934Z,98601.14
2023-04-16T18:14:44.418Z,98601.67
2023-04-16T18:17:25.953Z,98590.77
2023-04-16T18:20:15.778Z,98587.40
2023-04-16T18:22:47.437Z,98574.67
2023-04-16T18:25:19.902Z,98581.48
2023-04-16T18:27:49.300Z,98583.38
2023-04-16T18:30:25.432Z,98567.53
2023-04-16T18:33:16.543Z,98559.14
2023-04-16T18:35:26.915Z,98554.22
2023-04-16T18:39:00.270Z,98560.22
2023-04-16T18:41:44.367Z,98550.14
2023-04-16T18:44:20.647Z,98556.41
2023-04-16T18:46:50.682Z,98551.50
2023-04-16T18:49:22.106Z,98550.67
2023-04-16T18:51:51.974Z,98549.81
2023-04-16T18:54:42.147Z,98546.59
2023-04-16T18:57:12.193Z,98550.67
2023-04-16T18:59:42.474Z,98541.42
2023-04-16T19:02:33.950Z,98535.69
2023-04-16T19:05:50.944Z,98534.89
2023-04-16T19:09:11.565Z,98515.50
2023-04-16T19:11:42.505Z,98532.17
2023-04-16T19:14:54.481Z,98520.98
2023-04-16T19:17:48.835Z,98517.64
2023-04-16T19:20:54.031Z,98530.27
2023-04-16T19:24:09.300Z,98520.73
2023-04-16T19:27:15.199Z,98518.54
2023-04-16T19:30:21.685Z,98507.64
2023-04-16T19:32:53.834Z,98514.16
2023-04-16T19:35:58.098Z,98509.53
2023-04-16T19:39:05.463Z,98502.19
2023-04-16T19:42:13.535Z,98500.82
2023-04-16T19:45:16.728Z,98498.09
2023-04-16T19:47:50.944Z,98492.96
2023-04-16T19:51:07.119Z,98490.23
2023-04-16T19:54:06.133Z,98484.78
2023-04-16T19:56:55.401Z,98481.17
2023-04-16T19:59:38.984Z,98476.67
2023-04-16T20:03:04.550Z,98482.13
2023-04-16T20:06:07.930Z,98445.28
2023-04-16T20:09:05.808Z,98474.23
2023-04-16T20:12:18.293Z,98457.12
2023-04-16T20:17:59.232Z,98450.66
2023-04-16T20:21:23.740Z,98460.67
2023-04-16T20:24:01.358Z,98447.13
2023-04-16T20:26:58.910Z,98453.92
2023-04-16T20:30:06.789Z,98449.29
2023-04-16T20:32:50.368Z,98442.77
2023-04-16T20:35:48.144Z,98435.44
2023-04-16T20:39:10.394Z,98427.32
2023-04-16T20:41:56.566Z,98410.11
2023-04-16T20:45:04.927Z,98416.70
2023-04-16T20:48:02.077Z,98403.67
2023-04-16T20:51:14.256Z,98407.22
2023-04-16T20:53:59.028Z,98403.19
2023-04-16T20:57:10.483Z,98411.66
2023-04-16T21:06:19.837Z,98381.62
2023-04-16T21:12:01.434Z,98367.67
2023-04-16T21:17:52.700Z,98367.50
2023-04-16T21:20:35.156Z,98362.11
2023-04-16T21:23:06.434Z,98337.22
2023-04-16T21:25:48.902Z,98349.89
2023-04-16T21:28:21.127Z,98345.86
2023-04-16T21:33:49.523Z,98315.91
2023-04-16T21:36:33.685Z,98338.30
2023-04-16T21:42:14.874Z,98332.67
2023-04-16T21:45:20.928Z,98330.54
2023-04-16T21:48:06.692Z,98336.59
2023-04-16T21:50:47.485Z,98327.36
2023-04-16T21:53:35.741Z,98318.69
2023-04-16T21:55:59.050Z,98271.57
2023-04-16T21:58:36.124Z,98303.48
2023-04-16T22:04:11.424Z,98304.95
2023-04-16T22:06:51.877Z,98298.17
2023-04-16T22:09:22.910Z,98287.31
2023-04-16T22:12:17.804Z,98281.91
2023-04-16T22:15:03.246Z,98286.59
2023-04-16T22:23:55.840Z,98269.56
2023-04-16T22:29:23.312Z,98259.52
2023-04-16T22:37:52.985Z,98258.34
2023-04-16T22:40:24.568Z,98262.20
2023-04-16T22:43:00.636Z,98245.61
2023-04-16T22:45:52.154Z,98242.73
2023-04-16T22:48:58.542Z,98257.11
2023-04-16T22:51:47.083Z,98258.50
2023-04-16T22:54:24.179Z,98250.23
2023-04-16T22:57:43.470Z,98246.13
2023-04-16T23:00:19.558Z,98240.74
2023-04-16T23:03:18.402Z,98240.80
2023-04-16T23:12:27.243Z,98241.03
2023-04-16T23:18:26.650Z,98230.61
2023-04-16T23:24:38.575Z,98226.56
2023-04-16T23:27:24.505Z,98220.55
2023-04-16T23:30:44.354Z,98220.31
2023-04-16T23:33:37.227Z,98218.14
2023-04-16T23:43:03.200Z,98217.67
2023-04-16T23:45:51.610Z,98217.72
2023-04-16T23:48:22.881Z,98221.58
2023-04-16T23:51:22.127Z,98224.04
2023-04-16T23:54:40.708Z,98220.48
